createdAt,value
2024-05-09T00:00:43.486Z,3.29
2024-05-09T00:03:11.782Z,3.27
2024-05-09T00:05:40.849Z,3.31
2024-05-09T00:08:09.003Z,3.31
2024-05-09T00:10:38.594Z,3.28
2024-05-09T00:13:10.999Z,3.28
2024-05-09T00:15:38.616Z,3.30
2024-05-09T00:18:07.503Z,3.21
2024-05-09T00:20:39.111Z,3.26
2024-05-09T00:23:08.847Z,3.33
2024-05-09T00:25:36.440Z,3.32
2024-05-09T00:28:06.173Z,3.31
2024-05-09T00:30:37.156Z,3.34
2024-05-09T00:33:06.321Z,3.32
2024-05-09T00:35:34.729Z,3.29
2024-05-09T00:38:02.050Z,3.35
2024-05-09T00:40:41.736Z,3.21
2024-05-09T00:43:11.250Z,3.17
2024-05-09T00:45:41.406Z,3.32
2024-05-09T00:48:11.075Z,3.36
2024-05-09T00:50:41.917Z,3.33
2024-05-09T00:53:11.807Z,3.23
2024-05-09T00:55:40.336Z,3.34
2024-05-09T00:58:08.864Z,3.35
2024-05-09T01:00:39.814Z,3.34
2024-05-09T01:03:12.861Z,3.31
2024-05-09T01:05:41.759Z,3.43
2024-05-09T01:08:09.903Z,3.38
2024-05-09T01:10:37.518Z,3.31
2024-05-09T01:13:05.527Z,3.26
2024-05-09T01:15:33.124Z,3.30
2024-05-09T01:18:06.521Z,3.32
2024-05-09T01:20:41.613Z,3.31
2024-05-09T01:23:15.920Z,3.32
2024-05-09T01:25:44.356Z,3.34
2024-05-09T01:28:12.061Z,3.33
2024-05-09T01:30:39.146Z,3.33
2024-05-09T01:33:10.243Z,3.31
2024-05-09T01:35:41.265Z,3.25
2024-05-09T01:38:10.090Z,3.08
2024-05-09T01:40:40.535Z,3.13
2024-05-09T01:43:08.571Z,3.26
2024-05-09T01:45:36.629Z,3.20
2024-05-09T01:48:04.737Z,3.15
2024-05-09T01:53:01.995Z,3.29
2024-05-09T01:55:29.107Z,3.10
2024-05-09T01:57:58.701Z,3.18
2024-05-09T02:00:36.891Z,3.26
2024-05-09T02:03:08.756Z,3.21
2024-05-09T02:05:36.191Z,3.32
2024-05-09T02:08:03.569Z,3.34
2024-05-09T02:10:32.947Z,3.31
2024-05-09T02:13:03.257Z,3.24
2024-05-09T02:15:30.208Z,3.21
2024-05-09T02:17:59.093Z,3.10
2024-05-09T02:20:33.855Z,3.24
2024-05-09T02:23:05.093Z,3.15
2024-05-09T02:25:32.986Z,3.13
2024-05-09T02:28:02.812Z,3.26
2024-05-09T02:30:38.658Z,3.27
2024-05-09T02:33:09.880Z,3.27
2024-05-09T02:35:38.771Z,3.19
2024-05-09T02:38:05.889Z,3.28
2024-05-09T02:40:37.222Z,3.28
2024-05-09T02:43:12.376Z,3.23
2024-05-09T02:45:40.576Z,3.25
2024-05-09T02:48:11.207Z,3.12
2024-05-09T02:50:40.815Z,3.23
2024-05-09T02:53:08.922Z,3.06
2024-05-09T02:55:37.239Z,3.14
2024-05-09T02:58:04.519Z,3.29
2024-05-09T03:00:38.971Z,3.21
2024-05-09T03:03:10.487Z,3.35
2024-05-09T03:05:40.150Z,3.27
2024-05-09T03:08:07.820Z,3.30
2024-05-09T03:10:37.148Z,3.28
2024-05-09T03:13:06.641Z,3.24
2024-05-09T03:15:36.506Z,3.24
2024-05-09T03:18:04.294Z,3.20
2024-05-09T03:20:34.815Z,3.26
2024-05-09T03:23:06.389Z,3.40
2024-05-09T03:25:33.528Z,3.44
2024-05-09T03:28:00.700Z,3.47
2024-05-09T03:30:38.889Z,3.46
2024-05-09T03:33:14.072Z,3.55
2024-05-09T03:35:43.188Z,3.55
2024-05-09T03:38:10.221Z,3.48
2024-05-09T03:40:43.939Z,3.52
2024-05-09T03:43:10.974Z,3.63
2024-05-09T03:45:38.068Z,3.67
2024-05-09T03:48:05.664Z,3.66
2024-05-09T03:50:36.569Z,3.59
2024-05-09T03:53:04.751Z,3.75
2024-05-09T03:55:31.888Z,3.79
2024-05-09T03:57:59.434Z,3.80
2024-05-09T04:00:35.075Z,3.79
2024-05-09T04:03:07.693Z,3.84
2024-05-09T04:05:41.617Z,3.84
2024-05-09T04:08:10.274Z,3.97
2024-05-09T04:10:37.835Z,4.01
2024-05-09T04:13:05.453Z,4.05
2024-05-09T04:15:32.864Z,4.04
2024-05-09T04:18:01.072Z,4.02
2024-05-09T04:20:36.710Z,4.10
2024-05-09T04:23:11.846Z,4.15
2024-05-09T04:25:41.894Z,4.13
2024-05-09T04:28:08.895Z,4.19
2024-05-09T04:30:39.321Z,4.30
2024-05-09T04:33:11.860Z,4.42
2024-05-09T04:35:42.634Z,4.51
2024-05-09T04:38:14.105Z,4.49
2024-05-09T04:40:41.865Z,4.66
2024-05-09T04:43:15.166Z,4.69
2024-05-09T04:45:42.458Z,4.76
2024-05-09T04:48:09.654Z,4.96
2024-05-09T04:50:39.012Z,4.97
2024-05-09T04:53:08.651Z,5.11
2024-05-09T04:55:40.701Z,5.12
2024-05-09T04:58:08.769Z,5.07
2024-05-09T05:00:37.912Z,5.05
2024-05-09T05:03:13.042Z,5.07
2024-05-09T05:05:43.644Z,5.20
2024-05-09T05:08:12.593Z,5.23
2024-05-09T05:10:43.290Z,5.25
2024-05-09T05:13:17.861Z,5.38
2024-05-09T05:15:46.111Z,5.38
2024-05-09T05:18:13.526Z,5.39
2024-05-09T05:20:40.894Z,5.46
2024-05-09T05:23:10.770Z,5.53
2024-05-09T05:25:38.129Z,5.46
2024-05-09T05:28:07.986Z,5.39
2024-05-09T05:30:37.599Z,5.56
2024-05-09T05:33:06.335Z,5.60
2024-05-09T05:35:34.714Z,5.78
2024-05-09T05:38:04.818Z,5.73
2024-05-09T05:40:36.610Z,5.95
2024-05-09T05:43:09.112Z,6.09
2024-05-09T05:45:36.485Z,6.00
2024-05-09T05:48:05.940Z,6.20
2024-05-09T05:50:36.545Z,6.16
2024-05-09T05:53:06.804Z,6.09
2024-05-09T05:55:34.151Z,6.08
2024-05-09T05:58:01.369Z,5.97
2024-05-09T06:03:02.347Z,5.74
2024-05-09T06:05:29.631Z,5.63
2024-05-09T06:07:56.615Z,5.76
2024-05-09T06:10:29.684Z,5.71
2024-05-09T06:13:02.067Z,5.78
2024-05-09T06:15:31.596Z,5.92
2024-05-09T06:17:59.502Z,5.94
2024-05-09T06:20:34.843Z,6.07
2024-05-09T06:23:05.144Z,5.99
2024-05-09T06:25:32.443Z,6.05
2024-05-09T06:28:00.347Z,6.15
2024-05-09T06:30:36.809Z,6.12
2024-05-09T06:33:12.722Z,6.28
2024-05-09T06:35:41.959Z,6.26
2024-05-09T06:38:09.738Z,6.26
2024-05-09T06:40:40.814Z,6.17
2024-05-09T06:43:11.387Z,6.35
2024-05-09T06:45:40.079Z,6.46
2024-05-09T06:48:10.556Z,6.67
2024-05-09T06:50:39.370Z,6.86
2024-05-09T06:53:10.062Z,6.98
2024-05-09T06:55:37.831Z,7.06
2024-05-09T06:58:06.502Z,7.19
2024-05-09T07:00:38.968Z,7.19
2024-05-09T07:03:13.160Z,7.04
2024-05-09T07:05:42.364Z,7.08
2024-05-09T07:08:09.769Z,6.97
2024-05-09T07:10:37.427Z,6.60
2024-05-09T07:13:08.520Z,6.77
2024-05-09T07:15:35.646Z,6.93
2024-05-09T07:18:11.489Z,7.30
2024-05-09T07:20:39.092Z,7.43
2024-05-09T07:23:08.901Z,7.67
2024-05-09T07:25:36.117Z,7.73
2024-05-09T07:28:03.223Z,7.87
2024-05-09T07:30:34.438Z,7.80
2024-05-09T07:33:02.900Z,7.94
2024-05-09T07:35:33.736Z,7.75
2024-05-09T07:38:00.784Z,7.83
2024-05-09T07:40:33.373Z,7.87
2024-05-09T07:43:03.788Z,7.94
2024-05-09T07:45:47.772Z,8.26
2024-05-09T07:52:37.198Z,8.22
2024-05-09T07:53:45.455Z,8.11
2024-05-09T07:56:16.281Z,7.83
2024-05-09T07:58:44.216Z,8.12
2024-05-09T08:01:11.324Z,8.32
2024-05-09T08:03:38.692Z,8.21
2024-05-09T08:06:08.472Z,7.86
2024-05-09T08:08:35.424Z,7.97
2024-05-09T08:11:03.117Z,8.15
2024-05-09T08:13:30.168Z,7.16
2024-05-09T08:15:57.174Z,7.42
2024-05-09T08:18:24.538Z,7.31
2024-05-09T08:20:51.574Z,7.36
2024-05-09T08:23:21.183Z,7.38
2024-05-09T08:25:48.223Z,7.07
2024-05-09T08:28:15.672Z,7.34
2024-05-09T08:30:43.163Z,7.68
2024-05-09T08:33:10.505Z,8.12
2024-05-09T08:35:37.668Z,8.64
2024-05-09T08:38:06.802Z,8.77
2024-05-09T08:40:38.068Z,8.94
2024-05-09T08:43:08.155Z,9.06
2024-05-09T08:45:36.547Z,9.14
2024-05-09T08:48:08.211Z,9.54
2024-05-09T08:50:40.800Z,9.71
2024-05-09T08:53:08.868Z,9.78
2024-05-09T08:55:42.024Z,10.14
2024-05-09T08:58:16.039Z,10.22
2024-05-09T09:00:44.273Z,10.16
2024-05-09T09:03:15.322Z,10.23
2024-05-09T09:05:49.784Z,10.20
2024-05-09T09:08:16.843Z,9.72
2024-05-09T09:10:47.887Z,9.53
2024-05-09T09:13:14.970Z,9.52
2024-05-09T09:15:48.091Z,9.55
2024-05-09T09:18:16.215Z,9.93
2024-05-09T09:20:43.927Z,10.13
2024-05-09T09:23:11.191Z,10.22
2024-05-09T09:25:39.794Z,10.08
2024-05-09T09:28:10.120Z,9.75
2024-05-09T09:30:39.434Z,9.42
2024-05-09T09:33:08.281Z,9.45
2024-05-09T09:35:38.615Z,9.68
2024-05-09T09:38:07.342Z,9.63
2024-05-09T09:40:38.945Z,9.74
2024-05-09T09:43:16.867Z,9.68
2024-05-09T09:45:45.161Z,9.84
2024-05-09T09:48:15.327Z,10.08
2024-05-09T09:50:42.574Z,9.85
2024-05-09T09:53:10.448Z,10.10
2024-05-09T09:55:39.889Z,10.52
2024-05-09T09:58:09.745Z,10.55
2024-05-09T10:00:42.280Z,10.64
2024-05-09T10:03:09.289Z,10.64
2024-05-09T10:05:37.418Z,10.69
2024-05-09T10:08:07.054Z,10.80
2024-05-09T10:10:35.738Z,10.75
2024-05-09T10:13:04.376Z,10.22
2024-05-09T10:15:42.029Z,10.29
2024-05-09T10:18:12.153Z,9.72
2024-05-09T10:20:42.730Z,9.68
2024-05-09T10:23:26.502Z,9.81
2024-05-09T10:25:58.145Z,9.79
2024-05-09T10:28:28.452Z,9.72
2024-05-09T10:31:08.902Z,9.83
2024-05-09T10:33:51.436Z,9.82
2024-05-09T10:36:20.965Z,9.97
2024-05-09T10:38:49.162Z,9.89
2024-05-09T10:41:16.727Z,9.94
2024-05-09T10:43:43.687Z,10.13
2024-05-09T10:46:11.900Z,10.26
2024-05-09T10:48:43.215Z,10.49
2024-05-09T10:51:10.727Z,10.43
2024-05-09T10:53:41.608Z,10.15
2024-05-09T10:56:09.283Z,10.13
2024-05-09T10:58:36.387Z,10.07
2024-05-09T11:01:06.861Z,10.50
2024-05-09T11:03:35.508Z,9.94
2024-05-09T11:06:06.667Z,10.28
2024-05-09T11:08:35.155Z,10.43
2024-05-09T11:11:07.475Z,10.93
2024-05-09T11:13:37.072Z,11.09
2024-05-09T11:16:05.373Z,11.10
2024-05-09T11:18:36.713Z,11.09
2024-05-09T11:21:13.645Z,10.93
2024-05-09T11:23:41.435Z,10.65
2024-05-09T11:26:09.222Z,10.67
2024-05-09T11:28:36.271Z,10.64
2024-05-09T11:31:08.014Z,10.51
2024-05-09T11:33:37.317Z,10.18
2024-05-09T11:36:05.222Z,10.16
2024-05-09T11:38:35.299Z,9.93
2024-05-09T11:41:02.705Z,9.93
2024-05-09T11:43:29.778Z,10.27
2024-05-09T11:45:57.709Z,10.37
2024-05-09T11:48:25.456Z,10.41
2024-05-09T11:50:54.094Z,10.68
2024-05-09T11:53:21.226Z,10.65
2024-05-09T11:55:50.887Z,10.50
2024-05-09T11:58:19.215Z,10.73
2024-05-09T12:00:47.098Z,10.67
2024-05-09T12:03:14.583Z,10.84
2024-05-09T12:05:41.845Z,10.80
2024-05-09T12:08:09.544Z,10.63
2024-05-09T12:10:37.183Z,10.31
2024-05-09T12:13:07.738Z,10.26
2024-05-09T12:15:37.158Z,10.27
2024-05-09T12:18:05.936Z,10.32
2024-05-09T12:20:37.545Z,10.45
2024-05-09T12:23:07.439Z,10.26
2024-05-09T12:25:34.901Z,10.15
2024-05-09T12:28:03.132Z,9.85
2024-05-09T12:30:37.686Z,9.92
2024-05-09T12:33:08.416Z,9.92
2024-05-09T12:35:35.772Z,9.84
2024-05-09T12:38:02.948Z,9.89
2024-05-09T12:40:36.005Z,9.82
2024-05-09T12:43:06.495Z,9.99
2024-05-09T12:45:36.516Z,9.91
2024-05-09T12:48:06.937Z,10.02
2024-05-09T12:50:34.851Z,9.96
2024-05-09T12:53:03.165Z,9.99
2024-05-09T12:55:37.293Z,9.95
2024-05-09T12:58:12.257Z,9.97
2024-05-09T13:00:41.973Z,9.92
2024-05-09T13:03:09.236Z,9.97
2024-05-09T13:05:36.494Z,10.07
2024-05-09T13:08:04.545Z,10.27
2024-05-09T13:10:35.023Z,10.18
2024-05-09T13:13:02.446Z,10.28
2024-05-09T13:15:29.797Z,10.24
2024-05-09T13:18:02.741Z,10.38
2024-05-09T13:20:33.806Z,10.43
2024-05-09T13:23:03.353Z,10.39
2024-05-09T13:25:30.359Z,10.50
2024-05-09T13:27:57.963Z,10.39
2024-05-09T13:30:33.789Z,10.54
2024-05-09T13:33:08.957Z,10.40
2024-05-09T13:35:38.272Z,10.43
2024-05-09T13:38:05.546Z,10.45
2024-05-09T13:40:35.253Z,10.50
2024-05-09T13:43:03.710Z,10.61
2024-05-09T13:45:30.909Z,10.33
2024-05-09T13:47:58.291Z,10.22
2024-05-09T13:50:33.942Z,10.13
2024-05-09T13:53:03.415Z,10.13
2024-05-09T13:55:30.556Z,10.00
2024-05-09T13:57:57.628Z,10.00
2024-05-09T14:02:54.666Z,10.18
2024-05-09T14:05:21.764Z,10.30
2024-05-09T14:07:51.615Z,10.32
2024-05-09T14:10:23.419Z,10.38
2024-05-09T14:12:56.223Z,10.21
2024-05-09T14:15:23.137Z,10.13
2024-05-09T14:17:50.115Z,10.18
2024-05-09T14:20:27.979Z,10.29
2024-05-09T14:23:01.175Z,10.45
2024-05-09T14:25:28.755Z,10.68
2024-05-09T14:27:57.455Z,10.96
2024-05-09T14:30:31.199Z,11.35
2024-05-09T14:33:04.459Z,11.60
2024-05-09T14:35:31.626Z,11.54
2024-05-09T14:38:01.538Z,11.66
2024-05-09T14:43:02.615Z,11.65
2024-05-09T14:45:30.248Z,11.56
2024-05-09T14:47:57.550Z,11.60
2024-05-09T14:50:34.445Z,11.53
2024-05-09T14:53:08.297Z,11.83
2024-05-09T14:55:37.221Z,11.90
2024-05-09T14:58:06.826Z,11.63
2024-05-09T15:00:38.504Z,11.43
2024-05-09T15:03:07.325Z,11.13
2024-05-09T15:05:34.596Z,11.19
2024-05-09T15:08:01.759Z,11.05
2024-05-09T15:10:35.230Z,10.94
2024-05-09T15:13:04.150Z,10.92
2024-05-09T15:15:31.754Z,10.88
2024-05-09T15:17:59.266Z,10.99
2024-05-09T15:20:33.478Z,11.06
2024-05-09T15:23:04.836Z,10.93
2024-05-09T15:25:37.492Z,10.88
2024-05-09T15:28:05.296Z,10.81
2024-05-09T15:30:34.003Z,10.63
2024-05-09T15:33:06.025Z,10.64
2024-05-09T15:35:34.294Z,10.62
2024-05-09T15:38:03.352Z,10.31
2024-05-09T15:40:37.734Z,10.36
2024-05-09T15:43:11.284Z,10.37
2024-05-09T15:45:39.683Z,10.38
2024-05-09T15:48:08.848Z,10.41
2024-05-09T15:50:39.931Z,10.47
2024-05-09T15:53:13.384Z,10.49
2024-05-09T15:55:41.419Z,10.57
2024-05-09T15:58:11.619Z,10.56
2024-05-09T16:00:42.077Z,10.47
2024-05-09T16:03:11.782Z,10.47
2024-05-09T16:05:41.007Z,10.45
2024-05-09T16:08:08.699Z,10.46
2024-05-09T16:10:37.603Z,10.49
2024-05-09T16:13:05.842Z,10.61
2024-05-09T16:15:35.479Z,10.58
2024-05-09T16:18:02.743Z,10.74
2024-05-09T16:20:38.454Z,10.68
2024-05-09T16:23:08.695Z,10.45
2024-05-09T16:25:36.169Z,10.29
2024-05-09T16:28:09.935Z,10.30
2024-05-09T16:30:41.020Z,10.20
2024-05-09T16:33:08.777Z,10.16
2024-05-09T16:35:37.139Z,10.13
2024-05-09T16:38:04.814Z,10.00
2024-05-09T16:40:38.439Z,9.94
2024-05-09T16:43:08.547Z,9.82
2024-05-09T16:45:36.060Z,9.73
2024-05-09T16:48:07.116Z,9.66
2024-05-09T16:50:35.717Z,9.58
2024-05-09T16:53:06.990Z,9.51
2024-05-09T16:55:34.634Z,9.27
2024-05-09T16:58:02.192Z,9.21
2024-05-09T17:00:39.184Z,9.18
2024-05-09T17:03:14.833Z,9.25
2024-05-09T17:05:43.190Z,9.11
2024-05-09T17:08:10.602Z,9.11
2024-05-09T17:10:37.789Z,9.05
2024-05-09T17:13:07.257Z,9.02
2024-05-09T17:15:35.790Z,9.01
2024-05-09T17:18:04.028Z,8.97
2024-05-09T17:20:36.407Z,8.94
2024-05-09T17:23:14.185Z,8.91
2024-05-09T17:25:41.807Z,8.73
2024-05-09T17:28:09.511Z,8.73
2024-05-09T17:30:39.037Z,8.78
2024-05-09T17:33:09.749Z,8.72
2024-05-09T17:35:40.634Z,8.70
2024-05-09T17:38:08.063Z,8.59
2024-05-09T17:40:37.281Z,8.68
2024-05-09T17:43:07.047Z,8.68
2024-05-09T17:45:37.797Z,8.71
2024-05-09T17:48:05.619Z,8.65
2024-05-09T17:50:36.008Z,8.68
2024-05-09T17:53:07.266Z,8.71
2024-05-09T17:55:34.873Z,8.71
2024-05-09T17:58:02.336Z,8.70
2024-05-09T18:00:37.530Z,8.67
2024-05-09T18:03:08.977Z,8.56
2024-05-09T18:05:37.399Z,8.53
2024-05-09T18:08:08.676Z,8.55
2024-05-09T18:10:38.760Z,8.56
2024-05-09T18:13:08.317Z,8.49
2024-05-09T18:15:36.056Z,8.55
2024-05-09T18:18:04.006Z,8.39
2024-05-09T18:20:40.281Z,8.46
2024-05-09T18:23:16.394Z,8.43
2024-05-09T18:25:44.812Z,8.37
2024-05-09T18:28:14.961Z,8.25
2024-05-09T18:30:41.912Z,8.35
2024-05-09T18:33:10.868Z,8.32
2024-05-09T18:35:38.382Z,8.30
2024-05-09T18:38:05.921Z,8.27
2024-05-09T18:40:38.063Z,8.28
2024-05-09T18:43:07.959Z,8.14
2024-05-09T18:45:37.080Z,8.20
2024-05-09T18:48:06.154Z,8.15
2024-05-09T18:50:37.628Z,8.10
2024-05-09T18:53:08.100Z,8.13
2024-05-09T18:55:37.747Z,8.18
2024-05-09T18:58:05.471Z,8.14
2024-05-09T19:00:36.437Z,8.02
2024-05-09T19:03:09.407Z,8.15
2024-05-09T19:05:39.402Z,8.12
2024-05-09T19:08:07.895Z,8.12
2024-05-09T19:10:38.840Z,8.16
2024-05-09T19:13:10.567Z,8.07
2024-05-09T19:15:40.558Z,8.15
2024-05-09T19:18:08.559Z,8.05
2024-05-09T19:20:36.821Z,8.20
2024-05-09T19:23:05.897Z,8.12
2024-05-09T19:25:33.672Z,8.23
2024-05-09T19:28:04.019Z,8.17
2024-05-09T19:30:38.551Z,8.21
2024-05-09T19:33:09.973Z,8.11
2024-05-09T19:35:37.990Z,8.10
2024-05-09T19:38:05.597Z,8.20
2024-05-09T19:40:34.181Z,8.17
2024-05-09T19:43:06.099Z,8.17
2024-05-09T19:45:35.763Z,8.18
2024-05-09T19:48:04.226Z,8.22
2024-05-09T19:50:39.653Z,8.19
2024-05-09T19:53:11.428Z,8.24
2024-05-09T19:55:38.721Z,8.28
2024-05-09T19:58:08.591Z,8.27
2024-05-09T20:00:39.573Z,8.34
2024-05-09T20:03:09.871Z,8.34
2024-05-09T20:05:37.933Z,8.31
2024-05-09T20:08:06.284Z,8.36
2024-05-09T20:10:36.748Z,8.44
2024-05-09T20:13:08.350Z,8.47
2024-05-09T20:15:37.082Z,8.50
2024-05-09T20:18:05.338Z,8.48
2024-05-09T20:20:39.065Z,8.40
2024-05-09T20:23:09.346Z,8.43
2024-05-09T20:25:36.809Z,8.42
2024-05-09T20:28:04.341Z,8.49
2024-05-09T20:30:35.163Z,8.51
2024-05-09T20:33:04.917Z,8.52
2024-05-09T20:35:33.434Z,8.60
2024-05-09T20:38:01.982Z,8.65
2024-05-09T20:40:34.175Z,8.62
2024-05-09T20:43:05.586Z,8.65
2024-05-09T20:45:36.127Z,8.64
2024-05-09T20:48:03.744Z,8.67
2024-05-09T20:50:37.817Z,8.59
2024-05-09T20:53:13.743Z,8.66
2024-05-09T20:55:42.377Z,8.58
2024-05-09T20:58:10.239Z,8.62
2024-05-09T21:00:43.608Z,8.72
2024-05-09T21:03:13.873Z,8.69
2024-05-09T21:05:42.225Z,8.74
2024-05-09T21:08:09.450Z,8.74
2024-05-09T21:10:37.180Z,8.75
2024-05-09T21:13:05.832Z,8.85
2024-05-09T21:15:33.765Z,8.93
2024-05-09T21:18:04.134Z,8.88
2024-05-09T21:20:33.423Z,8.89
2024-05-09T21:23:01.617Z,8.95
2024-05-09T21:25:29.443Z,8.94
2024-05-09T21:27:56.705Z,8.82
2024-05-09T21:30:32.613Z,9.01
2024-05-09T21:33:12.531Z,9.04
2024-05-09T21:35:41.289Z,9.05
2024-05-09T21:38:08.605Z,9.12
2024-05-09T21:40:36.908Z,9.12
2024-05-09T21:43:08.190Z,9.06
2024-05-09T21:45:36.258Z,9.16
2024-05-09T21:48:04.285Z,9.14
2024-05-09T21:50:40.026Z,9.14
2024-05-09T21:53:09.521Z,9.07
2024-05-09T21:55:36.587Z,9.17
2024-05-09T21:58:03.871Z,9.07
2024-05-09T22:00:36.821Z,9.09
2024-05-09T22:03:06.715Z,9.03
2024-05-09T22:05:37.760Z,8.98
2024-05-09T22:08:05.720Z,9.02
2024-05-09T22:10:35.361Z,9.05
2024-05-09T22:13:05.087Z,9.08
2024-05-09T22:15:35.477Z,8.97
2024-05-09T22:18:03.385Z,8.93
2024-05-09T22:20:36.826Z,8.99
2024-05-09T22:23:09.100Z,9.00
2024-05-09T22:25:36.719Z,8.98
2024-05-09T22:28:04.431Z,8.98
2024-05-09T22:30:36.601Z,8.90
2024-05-09T22:33:06.716Z,9.02
2024-05-09T22:35:33.937Z,8.98
2024-05-09T22:38:01.186Z,9.06
2024-05-09T22:40:41.664Z,9.05
2024-05-09T22:43:17.898Z,8.99
2024-05-09T22:45:47.116Z,8.95
2024-05-09T22:48:14.224Z,9.03
2024-05-09T22:50:41.428Z,9.04
2024-05-09T22:53:08.540Z,9.08
2024-05-09T22:55:38.160Z,9.04
2024-05-09T22:58:05.405Z,8.85
2024-05-09T23:00:35.470Z,8.99
2024-05-09T23:03:03.035Z,8.88
2024-05-09T23:05:30.941Z,8.90
2024-05-09T23:07:58.183Z,8.89
2024-05-09T23:10:32.184Z,8.91
2024-05-09T23:13:07.719Z,8.80
2024-05-09T23:15:36.305Z,8.76
2024-05-09T23:18:03.612Z,8.63
2024-05-09T23:20:37.042Z,8.64
2024-05-09T23:23:06.780Z,8.72
2024-05-09T23:25:34.031Z,8.71
2024-05-09T23:28:01.248Z,8.67
2024-05-09T23:30:37.514Z,8.65
2024-05-09T23:33:08.094Z,8.42
2024-05-09T23:35:35.719Z,8.38
2024-05-09T23:38:02.768Z,8.46
2024-05-09T23:40:38.290Z,8.33
2024-05-09T23:43:08.737Z,8.35
2024-05-09T23:45:39.005Z,8.27
2024-05-09T23:48:09.458Z,8.33
2024-05-09T23:50:38.692Z,8.21
2024-05-09T23:53:09.186Z,8.08
2024-05-09T23:55:37.837Z,8.21
2024-05-09T23:58:05.914Z,8.25
